Time;durP1;ratioP1;P1;durP2;ratioP2;P2;SDS_P1;SDS_P2;PMS_P1;PMS_P2;Temp;Humidity;BMP_temperature;BMP_pressure;BME280_temperature;BME280_humidity;BME280_pressure;Samples;Min_cycle;Max_cycle;Signal;HPM_P1;HPM_P2
2022/09/17 00:00:25;;;;;;;;;1.00;1.00;;;;;22.43;47.22;99369.75;110839;1266;13078;-87
2022/09/17 00:03:12;;;;;;;;;1.00;1.00;;;;;22.43;47.23;99372.81;110966;1267;13195;-88
2022/09/17 00:05:39;;;;;;;;;1.00;1.00;;;;;22.42;47.28;99372.52;110963;1266;13110;-88
2022/09/17 00:08:07;;;;;;;;;1.00;1.00;;;;;22.43;47.30;99375.70;111006;1267;13090;-88
2022/09/17 00:10:34;;;;;;;;;1.50;1.50;;;;;22.42;47.26;99374.88;111045;1267;16368;-88
2022/09/17 00:13:01;;;;;;;;;2.00;2.00;;;;;22.42;47.32;99377.98;111056;1267;13195;-87
2022/09/17 00:15:29;;;;;;;;;1.00;1.00;;;;;22.42;47.36;99377.86;111038;1267;12991;-86
2022/09/17 00:17:57;;;;;;;;;1.00;1.00;;;;;22.42;47.36;99371.48;110993;1267;13128;-88
2022/09/17 00:20:25;;;;;;;;;2.00;1.00;;;;;22.42;47.44;99374.58;111043;1266;13037;-89
2022/09/17 00:22:52;;;;;;;;;1.00;1.00;;;;;22.42;47.41;99372.94;111076;1267;13123;-90
2022/09/17 00:25:19;;;;;;;;;1.00;1.00;;;;;22.42;47.46;99374.49;111068;1265;16406;-86
2022/09/17 00:27:46;;;;;;;;;1.00;1.00;;;;;22.42;47.50;99376.92;110999;1266;13175;-88
2022/09/17 00:30:14;;;;;;;;;1.00;1.00;;;;;22.43;47.45;99375.76;110862;1267;12961;-88
2022/09/17 00:32:41;;;;;;;;;1.00;1.00;;;;;22.42;47.40;99373.06;110849;1267;12610;-87
2022/09/17 00:35:08;;;;;;;;;2.00;2.00;;;;;22.42;47.44;99373.11;110999;1267;12994;-88
2022/09/17 00:37:36;;;;;;;;;1.00;1.00;;;;;22.42;47.48;99374.28;111056;1267;13088;-85
2022/09/17 00:40:03;;;;;;;;;1.00;1.00;;;;;22.42;47.50;99369.36;111053;1266;13091;-87
2022/09/17 00:42:30;;;;;;;;;2.00;2.00;;;;;22.43;47.51;99373.73;111064;1266;13227;-89
2022/09/17 00:44:58;;;;;;;;;1.00;1.00;;;;;22.42;47.55;99370.89;111058;1268;13111;-88
2022/09/17 00:47:26;;;;;;;;;1.00;1.00;;;;;22.42;47.54;99375.46;111056;1266;13270;-88
2022/09/17 00:49:53;;;;;;;;;1.00;1.00;;;;;22.42;47.52;99376.98;111031;1267;13194;-87
2022/09/17 00:52:20;;;;;;;;;1.00;1.00;;;;;22.41;47.57;99374.11;111100;1265;13154;-88
2022/09/17 00:54:48;;;;;;;;;1.00;1.00;;;;;22.42;47.63;99375.63;111575;1267;13108;-87
2022/09/17 00:57:15;;;;;;;;;1.00;1.00;;;;;22.41;47.59;99375.20;111442;1267;13092;-87
2022/09/17 00:59:43;;;;;;;;;1.00;1.00;;;;;22.43;47.62;99377.39;111107;1267;12836;-89
2022/09/17 01:02:10;;;;;;;;;1.00;1.00;;;;;22.41;47.60;99374.61;110998;1266;12947;-87
2022/09/17 01:04:37;;;;;;;;;1.00;1.00;;;;;22.41;47.58;99378.48;110996;1266;14379;-87
2022/09/17 01:07:05;;;;;;;;;1.00;1.00;;;;;22.41;47.63;99380.45;110978;1266;12896;-88
2022/09/17 01:09:32;;;;;;;;;1.00;1.00;;;;;22.42;47.68;99381.30;110982;1267;13090;-90
2022/09/17 01:11:59;;;;;;;;;1.00;1.00;;;;;22.41;47.58;99380.25;110876;1267;13370;-88
2022/09/17 01:14:27;;;;;;;;;1.00;1.00;;;;;22.40;47.72;99383.48;110988;1267;12658;-87
2022/09/17 01:16:54;;;;;;;;;1.00;1.00;;;;;22.41;47.70;99384.16;111000;1266;13006;-87
2022/09/17 01:19:21;;;;;;;;;2.00;2.00;;;;;22.41;47.75;99380.87;110953;1267;12936;-88
2022/09/17 01:21:49;;;;;;;;;1.00;1.00;;;;;22.41;47.70;99380.16;110915;1267;13240;-87
2022/09/17 01:24:16;;;;;;;;;2.00;1.33;;;;;22.41;47.72;99375.80;110931;1266;12624;-86
2022/09/17 01:26:43;;;;;;;;;2.00;2.00;;;;;22.41;47.70;99376.45;110909;1267;13080;-88
2022/09/17 01:29:11;;;;;;;;;1.00;1.00;;;;;22.41;47.70;99379.57;110964;1266;13187;-88
2022/09/17 01:31:38;;;;;;;;;2.00;2.00;;;;;22.41;47.69;99378.30;110866;1267;12757;-89
2022/09/17 01:34:08;;;;;;;;;1.00;1.00;;;;;22.41;47.74;99377.35;110911;1267;12829;-88
2022/09/17 01:36:36;;;;;;;;;1.00;1.00;;;;;22.41;47.80;99378.98;110960;1266;13110;-89
2022/09/17 01:39:03;;;;;;;;;2.00;2.00;;;;;22.41;47.82;99374.87;110936;1266;13214;-87
2022/09/17 01:41:31;;;;;;;;;1.00;1.00;;;;;22.41;47.85;99379.77;110919;1266;13006;-87
2022/09/17 01:43:58;;;;;;;;;2.00;2.00;;;;;22.40;47.81;99375.49;110896;1266;13259;-88
2022/09/17 01:46:25;;;;;;;;;1.00;1.00;;;;;22.40;47.79;99375.88;110934;1267;12960;-87
2022/09/17 01:48:53;;;;;;;;;1.67;1.67;;;;;22.40;47.85;99376.76;110952;1266;13160;-85
2022/09/17 01:51:21;;;;;;;;;2.00;2.00;;;;;22.41;47.80;99376.13;110943;1267;13169;-87
2022/09/17 01:53:49;;;;;;;;;2.00;2.00;;;;;22.40;47.89;99377.64;110963;1267;12972;-88
2022/09/17 01:56:16;;;;;;;;;1.00;1.00;;;;;22.40;47.82;99377.09;110937;1266;13049;-87
2022/09/17 01:58:43;;;;;;;;;1.33;1.33;;;;;22.39;47.84;99377.98;110944;1267;13218;-88
2022/09/17 02:01:11;;;;;;;;;1.00;1.00;;;;;22.41;47.86;99374.33;111049;1267;13131;-89
2022/09/17 02:03:38;;;;;;;;;1.00;1.00;;;;;22.40;47.85;99381.13;110905;1266;15077;-88
2022/09/17 02:06:05;;;;;;;;;1.00;1.00;;;;;22.40;47.82;99374.40;110927;1266;13085;-87
2022/09/17 02:08:33;;;;;;;;;1.00;1.00;;;;;22.40;47.85;99375.72;110807;1266;13254;-88
2022/09/17 02:11:00;;;;;;;;;1.00;1.00;;;;;22.40;47.93;99380.12;110885;1267;13101;-88
2022/09/17 02:13:27;;;;;;;;;1.00;1.00;;;;;22.39;47.92;99381.80;110790;1267;13369;-87
2022/09/17 02:15:55;;;;;;;;;2.00;1.00;;;;;22.39;47.83;99382.78;110877;1267;13047;-88
2022/09/17 02:18:23;;;;;;;;;1.00;1.00;;;;;22.39;47.86;99385.84;110942;1267;13160;-87
2022/09/17 02:20:51;;;;;;;;;1.00;1.00;;;;;22.39;47.90;99384.87;110843;1267;13354;-87
2022/09/17 02:23:18;;;;;;;;;1.00;1.00;;;;;22.39;47.99;99381.30;110949;1266;13097;-88
2022/09/17 02:25:45;;;;;;;;;2.00;2.00;;;;;22.39;47.87;99381.69;110945;1266;13159;-88
2022/09/17 02:28:13;;;;;;;;;2.00;2.00;;;;;22.37;47.85;99383.94;110934;1267;12710;-88
2022/09/17 02:30:40;;;;;;;;;1.00;1.00;;;;;22.38;47.92;99384.50;110977;1266;13727;-88
2022/09/17 02:33:07;;;;;;;;;1.67;1.67;;;;;22.38;47.87;99381.33;110941;1267;13197;-88
2022/09/17 02:35:36;;;;;;;;;1.00;1.00;;;;;22.38;47.85;99382.80;110931;1266;13311;-88
2022/09/17 02:38:04;;;;;;;;;1.00;1.00;;;;;22.38;47.79;99384.93;110929;1267;12137;-86
2022/09/17 02:40:31;;;;;;;;;2.00;2.00;;;;;22.38;47.85;99388.48;110900;1265;13675;-88
2022/09/17 02:42:59;;;;;;;;;2.00;2.00;;;;;22.39;47.98;99391.14;110941;1266;12790;-88
2022/09/17 02:45:26;;;;;;;;;1.00;1.00;;;;;22.39;47.99;99391.18;110769;1267;13105;-87
2022/09/17 02:47:53;;;;;;;;;2.00;2.00;;;;;22.39;47.96;99387.82;110661;1266;12599;-87
2022/09/17 02:50:21;;;;;;;;;2.00;2.00;;;;;22.39;47.95;99391.26;110878;1267;12512;-87
2022/09/17 02:52:48;;;;;;;;;1.00;1.00;;;;;22.38;47.91;99391.23;110942;1266;13296;-89
2022/09/17 02:55:16;;;;;;;;;2.00;2.00;;;;;22.39;47.92;99391.94;110963;1266;12903;-88
2022/09/17 02:57:43;;;;;;;;;1.00;1.00;;;;;22.38;47.86;99389.80;111006;1267;13218;-88
2022/09/17 03:00:10;;;;;;;;;1.00;1.00;;;;;22.39;47.86;99393.70;110899;1267;13015;-87
2022/09/17 03:02:38;;;;;;;;;1.00;1.00;;;;;22.39;48.01;99391.35;110925;1266;13220;-88
2022/09/17 03:05:05;;;;;;;;;1.67;1.67;;;;;22.39;47.99;99391.39;110921;1267;13068;-86
2022/09/17 03:07:32;;;;;;;;;2.00;1.67;;;;;22.38;47.96;99391.48;110926;1267;13223;-87
2022/09/17 03:10:00;;;;;;;;;1.67;1.67;;;;;22.38;48.07;99392.73;110907;1265;13085;-88
2022/09/17 03:12:28;;;;;;;;;2.00;2.00;;;;;22.39;47.93;99392.23;110966;1267;16413;-88
2022/09/17 03:14:55;;;;;;;;;2.00;2.00;;;;;22.39;47.98;99393.86;110955;1266;12922;-88
2022/09/17 03:17:22;;;;;;;;;1.00;1.00;;;;;22.39;47.90;99396.64;110957;1267;13246;-87
2022/09/17 03:19:50;;;;;;;;;1.00;1.00;;;;;22.39;47.93;99397.36;110963;1266;13201;-87
2022/09/17 03:22:17;;;;;;;;;1.00;1.00;;;;;22.39;48.00;99394.36;110993;1266;13095;-85
2022/09/17 03:24:44;;;;;;;;;1.33;1.33;;;;;22.40;48.00;99389.73;110976;1267;12966;-86
2022/09/17 03:27:12;;;;;;;;;3.00;2.00;;;;;22.38;48.05;99386.30;110906;1266;13189;-87
2022/09/17 03:29:39;;;;;;;;;1.00;1.00;;;;;22.38;47.91;99385.65;110951;1266;13182;-89
2022/09/17 03:32:07;;;;;;;;;2.00;2.00;;;;;22.38;47.99;99384.60;110937;1266;13233;-88
2022/09/17 03:34:34;;;;;;;;;1.33;1.00;;;;;22.37;48.00;99386.88;110931;1266;13432;-88
2022/09/17 03:37:01;;;;;;;;;1.33;1.33;;;;;22.37;47.95;99383.05;110942;1266;12692;-86
2022/09/17 03:39:29;;;;;;;;;2.00;2.00;;;;;22.37;48.00;99384.30;110946;1267;13004;-87
2022/09/17 03:41:56;;;;;;;;;1.00;1.00;;;;;22.37;47.99;99379.90;110947;1266;12637;-88
2022/09/17 03:44:23;;;;;;;;;1.00;1.00;;;;;22.38;48.05;99381.33;110927;1267;12887;-85
2022/09/17 03:46:51;;;;;;;;;1.33;1.33;;;;;22.37;48.11;99378.69;110908;1264;12968;-88
2022/09/17 03:49:18;;;;;;;;;2.00;1.00;;;;;22.37;48.02;99376.12;110950;1266;12978;-87
2022/09/17 03:51:45;;;;;;;;;3.00;1.67;;;;;22.36;48.01;99370.70;110934;1266;13219;-87
2022/09/17 03:54:13;;;;;;;;;2.00;2.00;;;;;22.36;47.95;99372.27;110915;1266;13104;-87
2022/09/17 03:56:40;;;;;;;;;1.00;1.00;;;;;22.36;47.95;99373.15;110903;1266;13129;-88
2022/09/17 03:59:08;;;;;;;;;1.67;1.00;;;;;22.36;47.91;99365.75;110888;1266;12837;-87
2022/09/17 04:01:35;;;;;;;;;2.00;2.00;;;;;22.35;47.96;99364.82;110817;1266;13121;-87
2022/09/17 04:04:03;;;;;;;;;2.00;2.00;;;;;22.35;47.94;99365.13;110883;1267;13098;-86
2022/09/17 04:06:30;;;;;;;;;2.00;2.00;;;;;22.36;47.93;99363.04;110893;1266;13243;-88
2022/09/17 04:08:59;;;;;;;;;1.33;1.33;;;;;22.36;48.04;99362.14;110877;1266;13438;-87
2022/09/17 04:11:27;;;;;;;;;1.67;1.67;;;;;22.37;48.06;99365.23;110884;1266;16827;-87
2022/09/17 04:13:54;;;;;;;;;1.33;1.33;;;;;22.37;47.97;99359.20;110908;1266;13214;-88
2022/09/17 04:16:22;;;;;;;;;1.00;1.00;;;;;22.37;47.95;99356.39;110954;1267;13292;-88
2022/09/17 04:18:49;;;;;;;;;1.00;1.00;;;;;22.36;47.98;99358.20;110936;1268;13051;-88
2022/09/17 04:21:16;;;;;;;;;2.00;2.00;;;;;22.35;47.97;99357.61;110924;1267;12860;-89
2022/09/17 04:23:43;;;;;;;;;3.00;3.00;;;;;22.36;48.03;99358.67;110908;1267;13781;-86
2022/09/17 04:26:11;;;;;;;;;1.00;1.00;;;;;22.35;47.94;99359.29;110926;1267;12968;-89
2022/09/17 04:28:38;;;;;;;;;2.00;1.67;;;;;22.36;47.95;99364.46;110939;1267;13122;-87
2022/09/17 04:31:06;;;;;;;;;2.00;2.00;;;;;22.37;47.97;99356.52;110943;1267;13300;-88
2022/09/17 04:33:33;;;;;;;;;1.00;1.00;;;;;22.38;47.93;99366.49;110919;1264;13200;-89
2022/09/17 04:36:00;;;;;;;;;1.00;1.00;;;;;22.39;48.02;99374.75;110915;1265;13092;-87
2022/09/17 04:38:28;;;;;;;;;1.67;1.67;;;;;22.37;48.00;99372.26;110896;1266;12524;-87
2022/09/17 04:40:56;;;;;;;;;1.67;1.67;;;;;22.37;48.00;99370.49;110915;1267;13234;-88
2022/09/17 04:43:23;;;;;;;;;2.00;2.00;;;;;22.36;47.88;99370.63;110951;1266;12886;-90
2022/09/17 04:45:51;;;;;;;;;2.00;2.00;;;;;22.38;47.89;99374.73;110968;1266;12890;-87
2022/09/17 04:48:18;;;;;;;;;2.00;2.00;;;;;22.39;47.99;99377.15;110945;1267;13163;-87
2022/09/17 04:50:45;;;;;;;;;2.00;2.00;;;;;22.39;48.02;99380.72;110938;1266;13682;-86
2022/09/17 04:53:13;;;;;;;;;1.33;1.33;;;;;22.39;48.26;99383.23;110898;1266;13513;-88
2022/09/17 04:55:40;;;;;;;;;2.00;2.00;;;;;22.40;48.47;99384.61;110918;1267;13075;-86
2022/09/17 04:58:07;;;;;;;;;2.00;1.33;;;;;22.40;48.65;99391.29;110923;1266;12871;-89
2022/09/17 05:00:35;;;;;;;;;1.00;1.00;;;;;22.39;48.74;99388.90;111002;1267;12689;-89
2022/09/17 05:03:02;;;;;;;;;1.00;1.00;;;;;22.40;48.87;99384.83;110980;1268;12656;-89
2022/09/17 05:05:30;;;;;;;;;1.00;1.00;;;;;22.39;48.95;99391.16;110734;1267;13077;-89
2022/09/17 05:07:57;;;;;;;;;1.33;1.33;;;;;22.39;48.86;99391.21;110948;1267;13028;-89
2022/09/17 05:10:25;;;;;;;;;2.00;2.00;;;;;22.40;48.92;99398.31;110379;1268;13036;-90
2022/09/17 05:12:52;;;;;;;;;3.00;2.00;;;;;22.39;48.95;99397.09;110978;1266;13106;-86
2022/09/17 05:15:20;;;;;;;;;2.00;2.00;;;;;22.39;48.79;99400.54;110861;1266;12713;-85
2022/09/17 05:17:47;;;;;;;;;1.00;1.00;;;;;22.40;48.81;99397.88;107034;1267;5144018;-86
2022/09/17 05:20:14;;;;;;;;;5.00;3.00;;;;;22.42;48.95;99401.12;111010;1267;10620;-91
2022/09/17 05:22:42;;;;;;;;;1.00;1.00;;;;;22.43;49.75;99404.48;110997;1267;13249;-88
2022/09/17 05:25:09;;;;;;;;;1.00;1.00;;;;;22.43;49.76;99410.48;110914;1267;13119;-88
2022/09/17 05:27:37;;;;;;;;;2.00;2.00;;;;;22.45;50.13;99410.88;110954;1267;13141;-87
2022/09/17 05:30:04;;;;;;;;;5.33;3.00;;;;;22.46;50.92;99410.66;110944;1266;12984;-86
2022/09/17 05:32:32;;;;;;;;;2.00;2.00;;;;;22.50;51.50;99410.48;110913;1267;13096;-85
2022/09/17 05:34:59;;;;;;;;;3.00;3.00;;;;;22.54;52.20;99413.02;110961;1266;12977;-89
2022/09/17 05:37:26;;;;;;;;;3.00;3.00;;;;;22.55;52.25;99418.46;110878;1267;12988;-89
2022/09/17 05:39:54;;;;;;;;;2.00;1.67;;;;;22.53;52.43;99420.95;111029;1267;13183;-92
2022/09/17 05:42:21;;;;;;;;;3.00;3.00;;;;;22.53;52.47;99427.84;111541;1266;13170;-93
2022/09/17 05:44:49;;;;;;;;;2.00;2.00;;;;;22.47;52.81;99432.95;111627;1267;13238;-94
2022/09/17 05:47:16;;;;;;;;;6.00;6.00;;;;;22.37;52.29;99433.94;111735;1267;12976;-93
2022/09/17 05:49:43;;;;;;;;;5.50;5.50;;;;;22.29;50.97;99428.45;111239;1266;13319;-88
2022/09/17 05:52:11;;;;;;;;;5.00;5.00;;;;;22.21;50.64;99423.00;110896;1267;12937;-87
2022/09/17 05:54:38;;;;;;;;;5.00;3.00;;;;;22.24;51.03;99422.15;110945;1266;14880;-88
2022/09/17 05:57:06;;;;;;;;;5.00;4.33;;;;;22.28;50.72;99416.53;110908;1267;13092;-89
2022/09/17 05:59:34;;;;;;;;;2.00;2.00;;;;;22.33;50.63;99414.02;110909;1267;13087;-90
2022/09/17 06:02:02;;;;;;;;;3.00;3.00;;;;;22.35;50.73;99414.42;110878;1267;13235;-90
2022/09/17 06:04:29;;;;;;;;;2.67;2.67;;;;;22.38;50.57;99413.15;110948;1267;11642;-88
2022/09/17 06:06:57;;;;;;;;;2.00;2.00;;;;;22.39;50.78;99415.54;110947;1267;13203;-88
2022/09/17 06:09:24;;;;;;;;;3.00;3.00;;;;;22.39;50.89;99416.41;110879;1265;13302;-87
2022/09/17 06:11:52;;;;;;;;;3.00;2.00;;;;;22.41;50.71;99416.15;110788;1267;12616;-87
2022/09/17 06:14:19;;;;;;;;;2.00;2.00;;;;;22.43;50.53;99416.29;110875;1265;13019;-89
2022/09/17 06:16:47;;;;;;;;;2.67;2.67;;;;;22.47;50.66;99416.09;110804;1267;16692;-87
2022/09/17 06:19:14;;;;;;;;;3.00;2.00;;;;;22.45;50.73;99413.18;110895;1267;12932;-88
2022/09/17 06:21:41;;;;;;;;;2.00;2.00;;;;;22.46;50.69;99414.39;110864;1266;13054;-88
2022/09/17 06:24:12;;;;;;;;;2.00;2.00;;;;;22.45;50.68;99415.20;110916;1266;13126;-86
2022/09/17 06:26:39;;;;;;;;;2.00;2.00;;;;;22.47;50.71;99424.02;110878;1267;13282;-87
2022/09/17 06:29:06;;;;;;;;;2.00;2.00;;;;;22.51;51.11;99422.36;110795;1268;13014;-86
2022/09/17 06:31:36;;;;;;;;;2.00;2.00;;;;;22.59;51.06;99422.21;110616;1265;13263;-89
2022/09/17 06:34:04;;;;;;;;;2.00;2.00;;;;;22.66;50.78;99424.39;111008;1264;13257;-89
2022/09/17 06:36:31;;;;;;;;;3.00;3.00;;;;;22.75;52.40;99427.89;110857;1267;12987;-89
2022/09/17 06:38:59;;;;;;;;;2.00;2.00;;;;;22.84;52.52;99424.39;110928;1265;13347;-91
2022/09/17 06:41:26;;;;;;;;;2.00;2.00;;;;;22.90;51.63;99423.30;111021;1267;13172;-88
2022/09/17 06:43:54;;;;;;;;;2.00;2.00;;;;;22.99;51.37;99419.04;110858;1266;13033;-88
2022/09/17 06:46:21;;;;;;;;;3.00;3.00;;;;;23.03;51.35;99418.67;111006;1267;13092;-91
2022/09/17 06:48:48;;;;;;;;;2.00;2.00;;;;;23.08;51.35;99415.39;111126;1267;13125;-88
2022/09/17 06:51:16;;;;;;;;;1.33;1.33;;;;;23.11;51.27;99412.07;110963;1266;13144;-89
2022/09/17 06:53:43;;;;;;;;;2.00;2.00;;;;;23.09;51.14;99415.63;110933;1267;13128;-86
2022/09/17 06:56:10;;;;;;;;;2.00;2.00;;;;;23.03;50.99;99419.92;110798;1267;13274;-88
2022/09/17 06:58:40;;;;;;;;;2.00;2.00;;;;;22.98;50.92;99426.58;110960;1266;12890;-87
2022/09/17 07:01:07;;;;;;;;;2.00;2.00;;;;;22.98;50.83;99429.09;110886;1267;13224;-87
2022/09/17 07:03:35;;;;;;;;;2.67;2.33;;;;;22.92;50.80;99431.08;110912;1266;13195;-88
2022/09/17 07:06:02;;;;;;;;;2.00;2.00;;;;;22.88;50.75;99428.66;110879;1267;13112;-88
2022/09/17 07:08:29;;;;;;;;;3.00;2.00;;;;;22.84;50.77;99430.52;110648;1265;13047;-86
2022/09/17 07:10:56;;;;;;;;;2.00;2.00;;;;;22.79;50.78;99427.27;110920;1267;13197;-86
2022/09/17 07:13:24;;;;;;;;;2.00;2.00;;;;;22.87;51.22;99430.73;110774;1267;13126;-86
2022/09/17 07:15:54;;;;;;;;;2.00;2.00;;;;;23.08;50.77;99431.40;110640;1267;13201;-84
2022/09/17 07:18:25;;;;;;;;;2.00;2.00;;;;;23.05;50.01;99431.80;110688;1266;13155;-85
2022/09/17 07:21:23;;;;;;;;;2.00;2.00;;;;;22.87;49.69;99434.39;107463;1301;13174;-56
2022/09/17 07:23:51;;;;;;;;;2.00;2.00;;;;;22.76;49.58;99437.55;108687;1276;15646;-60
2022/09/17 07:26:18;;;;;;;;;2.00;2.00;;;;;22.77;49.89;99438.35;108799;1276;15331;-61
2022/09/17 07:28:45;;;;;;;;;2.00;2.00;;;;;22.82;50.13;99435.08;108708;1275;13011;-58
2022/09/17 07:31:12;;;;;;;;;4.33;4.33;;;;;22.80;50.39;99440.05;108613;1277;14177;-58
2022/09/17 07:33:40;;;;;;;;;1.00;1.00;;;;;22.79;50.51;99442.03;108748;1277;13620;-56
2022/09/17 07:36:07;;;;;;;;;2.00;2.00;;;;;22.78;50.69;99440.65;108625;1268;1254635;-58
2022/09/17 07:38:34;;;;;;;;;28.67;23.33;;;;;22.78;50.78;99440.57;109740;1268;13938;-57
2022/09/17 07:41:02;;;;;;;;;95.00;70.00;;;;;22.74;50.64;99445.47;109793;1269;13199;-59
2022/09/17 07:43:29;;;;;;;;;95.67;68.67;;;;;22.63;50.62;99448.99;109776;1268;14875;-58
2022/09/17 07:45:56;;;;;;;;;67.33;50.00;;;;;22.57;50.33;99445.28;109845;1268;10534;-61
2022/09/17 07:48:23;;;;;;;;;71.00;52.00;;;;;22.58;50.23;99450.02;110372;1264;13819;-56
2022/09/17 07:50:51;;;;;;;;;63.00;47.50;;;;;22.60;50.17;99454.39;110355;1265;14299;-59
2022/09/17 07:53:18;;;;;;;;;53.50;41.50;;;;;22.61;50.15;99454.27;110416;1265;13138;-58
2022/09/17 07:55:45;;;;;;;;;44.50;33.50;;;;;22.62;50.13;99461.72;110400;1265;13702;-59
2022/09/17 07:58:12;;;;;;;;;41.00;32.33;;;;;22.63;50.23;99458.98;110354;1264;13359;-59
2022/09/17 08:00:40;;;;;;;;;34.00;27.50;;;;;22.65;50.26;99462.63;110419;1265;11354;-59
2022/09/17 08:03:07;;;;;;;;;31.00;29.00;;;;;22.67;50.26;99465.61;110401;1265;13644;-58
2022/09/17 08:05:34;;;;;;;;;26.00;20.00;;;;;22.66;50.35;99463.17;110335;1265;13654;-59
2022/09/17 08:08:02;;;;;;;;;20.00;19.00;;;;;22.68;50.58;99469.50;110381;1265;18091;-57
2022/09/17 08:10:29;;;;;;;;;18.00;15.50;;;;;22.73;50.74;99471.23;110404;1264;13116;-56
2022/09/17 08:12:57;;;;;;;;;17.67;13.33;;;;;22.73;50.83;99476.08;110441;1264;13217;-59
2022/09/17 08:15:24;;;;;;;;;12.00;11.00;;;;;22.61;50.62;99472.83;110263;1264;13476;-60
2022/09/17 08:17:51;;;;;;;;;13.33;10.67;;;;;22.59;50.49;99473.64;110292;1265;13892;-57
2022/09/17 08:20:19;;;;;;;;;10.67;7.67;;;;;22.63;51.20;99471.88;110333;1264;13627;-58
2022/09/17 08:22:46;;;;;;;;;11.00;10.00;;;;;22.69;51.51;99476.05;110363;1263;13365;-59
2022/09/17 08:25:13;;;;;;;;;19.67;18.33;;;;;22.65;51.44;99467.50;110401;1265;13671;-59
2022/09/17 08:27:40;;;;;;;;;89.50;65.00;;;;;22.68;51.30;99469.41;110443;1265;13091;-58
2022/09/17 08:30:08;;;;;;;;;103.00;74.67;;;;;22.74;51.37;99470.77;110382;1264;13252;-58
2022/09/17 08:32:35;;;;;;;;;101.50;73.00;;;;;22.79;51.42;99469.80;110395;1265;12321;-60
2022/09/17 08:35:02;;;;;;;;;95.00;72.00;;;;;22.80;51.27;99471.36;110379;1265;12597;-61
2022/09/17 08:37:30;;;;;;;;;99.67;75.00;;;;;22.82;50.85;99470.88;110381;1265;13319;-59
2022/09/17 08:39:58;;;;;;;;;108.00;87.00;;;;;22.84;51.28;99468.77;110419;1265;10838;-56
2022/09/17 08:42:26;;;;;;;;;94.00;67.50;;;;;22.91;51.21;99473.57;110236;1264;13064;-59
2022/09/17 08:44:54;;;;;;;;;91.00;64.33;;;;;22.88;51.14;99478.21;110428;1264;13762;-60
2022/09/17 08:47:21;;;;;;;;;90.00;67.00;;;;;22.93;51.06;99478.43;110417;1265;13288;-58
2022/09/17 08:49:48;;;;;;;;;119.00;97.00;;;;;22.96;50.87;99477.40;110430;1265;14689;-59
2022/09/17 08:52:15;;;;;;;;;123.00;90.50;;;;;22.92;51.02;99477.27;110460;1265;17989;-60
2022/09/17 08:54:43;;;;;;;;;183.50;141.50;;;;;22.88;50.85;99475.90;110474;1265;10536;-55
2022/09/17 08:57:10;;;;;;;;;93.67;63.00;;;;;22.68;50.75;99472.40;110416;1265;14372;-60
2022/09/17 08:59:38;;;;;;;;;85.33;63.33;;;;;22.54;50.29;99472.86;110437;1265;14963;-60
2022/09/17 09:02:05;;;;;;;;;66.00;50.50;;;;;22.39;50.44;99477.90;110374;1265;14768;-58
2022/09/17 09:04:33;;;;;;;;;55.33;42.00;;;;;22.27;50.35;99476.33;110227;1265;14742;-56
2022/09/17 09:07:00;;;;;;;;;45.00;38.00;;;;;22.25;50.10;99476.17;110460;1265;13222;-58
2022/09/17 09:09:27;;;;;;;;;32.33;26.33;;;;;22.21;49.62;99480.27;110255;1265;16664;-56
2022/09/17 09:11:54;;;;;;;;;25.50;21.50;;;;;22.15;49.31;99483.56;110297;1265;13555;-56
2022/09/17 09:14:22;;;;;;;;;21.67;19.67;;;;;22.11;49.07;99481.77;110412;1265;14705;-58
2022/09/17 09:16:49;;;;;;;;;18.33;16.67;;;;;22.17;49.51;99482.42;110204;1264;14442;-57
2022/09/17 09:19:16;;;;;;;;;15.00;15.00;;;;;22.26;49.72;99484.06;110200;1265;14548;-57
2022/09/17 09:21:44;;;;;;;;;14.00;13.00;;;;;22.30;49.45;99484.51;110376;1265;10334;-56
2022/09/17 09:24:11;;;;;;;;;11.67;10.33;;;;;22.23;49.16;99488.32;110392;1265;14799;-59
2022/09/17 09:26:38;;;;;;;;;15.33;12.33;;;;;22.11;49.20;99494.19;110338;1265;14049;-58
2022/09/17 09:29:05;;;;;;;;;14.00;11.00;;;;;22.20;49.17;99495.25;110254;1265;13781;-57
2022/09/17 09:31:33;;;;;;;;;11.00;9.00;;;;;22.08;48.65;99500.20;110392;1265;13421;-58
2022/09/17 09:34:00;;;;;;;;;7.00;7.00;;;;;21.40;48.84;99503.21;110397;1265;12704;-56
2022/09/17 09:36:27;;;;;;;;;7.00;7.00;;;;;20.81;49.79;99498.27;110424;1265;13844;-58
2022/09/17 09:38:56;;;;;;;;;6.33;6.33;;;;;21.18;49.78;99498.59;110400;1265;13136;-57
2022/09/17 09:41:23;;;;;;;;;4.33;3.67;;;;;21.64;49.15;99502.23;110345;1264;12768;-59
2022/09/17 09:43:50;;;;;;;;;5.00;5.00;;;;;21.94;48.88;99497.47;110335;1265;12957;-58
2022/09/17 09:46:18;;;;;;;;;5.33;5.33;;;;;22.12;48.63;99504.85;110427;1265;13823;-61
2022/09/17 09:48:45;;;;;;;;;5.00;5.00;;;;;22.20;48.64;99500.63;110335;1265;13158;-60
2022/09/17 09:51:13;;;;;;;;;5.67;5.67;;;;;22.25;48.68;99495.36;110422;1265;14585;-58
2022/09/17 09:53:40;;;;;;;;;4.00;4.00;;;;;22.30;48.66;99499.29;110397;1265;13752;-58
2022/09/17 09:56:07;;;;;;;;;6.00;5.67;;;;;22.32;48.61;99500.45;110374;1265;13709;-59
2022/09/17 09:58:35;;;;;;;;;5.00;3.00;;;;;22.34;48.57;99501.96;110397;1265;13847;-57
2022/09/17 10:01:02;;;;;;;;;6.00;5.00;;;;;22.35;48.64;99502.32;110453;1265;13027;-60
2022/09/17 10:03:31;;;;;;;;;5.00;5.00;;;;;22.35;48.89;99499.27;110392;1265;13896;-60
2022/09/17 10:05:58;;;;;;;;;3.67;3.67;;;;;22.37;48.93;99504.20;110438;1265;13052;-58
2022/09/17 10:08:25;;;;;;;;;3.00;3.00;;;;;22.37;48.88;99505.09;110410;1265;16288;-59
2022/09/17 10:10:52;;;;;;;;;5.33;5.00;;;;;22.39;48.82;99515.66;110357;1265;13527;-58
2022/09/17 10:13:20;;;;;;;;;6.00;5.00;;;;;22.39;48.97;99517.42;110352;1265;13177;-59
2022/09/17 10:15:47;;;;;;;;;6.00;5.00;;;;;22.39;48.93;99523.59;110382;1265;13022;-58
2022/09/17 10:18:14;;;;;;;;;3.00;3.00;;;;;22.39;48.95;99527.75;110422;1265;13304;-58
2022/09/17 10:20:41;;;;;;;;;5.00;4.33;;;;;22.41;48.84;99533.38;110426;1265;12832;-56
2022/09/17 10:23:09;;;;;;;;;5.00;3.00;;;;;22.40;49.04;99535.73;110387;1264;13066;-62
2022/09/17 10:25:36;;;;;;;;;3.00;3.00;;;;;22.40;48.97;99540.80;110329;1265;13117;-57
2022/09/17 10:28:03;;;;;;;;;4.00;3.00;;;;;22.39;48.97;99542.54;110343;1265;13170;-56
2022/09/17 10:30:30;;;;;;;;;3.00;3.00;;;;;22.38;48.94;99547.59;110386;1265;13044;-60
2022/09/17 10:32:58;;;;;;;;;3.00;3.00;;;;;22.39;49.00;99547.13;110420;1264;13987;-59
2022/09/17 10:35:25;;;;;;;;;3.00;2.67;;;;;22.38;49.01;99552.21;110391;1265;13404;-62
2022/09/17 10:37:52;;;;;;;;;3.00;2.67;;;;;22.38;48.98;99551.88;110379;1265;13284;-59
2022/09/17 10:40:19;;;;;;;;;2.67;2.67;;;;;22.39;48.81;99555.81;110362;1265;13727;-59
2022/09/17 10:42:47;;;;;;;;;3.00;3.00;;;;;22.39;48.88;99560.94;110390;1265;13068;-60
2022/09/17 10:45:14;;;;;;;;;3.00;3.00;;;;;22.40;48.96;99569.54;110379;1265;13142;-58
2022/09/17 10:47:42;;;;;;;;;2.00;2.00;;;;;22.39;48.89;99569.96;110427;1265;13172;-59
2022/09/17 10:50:10;;;;;;;;;2.00;2.00;;;;;22.39;48.94;99572.56;110298;1264;12741;-61
2022/09/17 10:52:37;;;;;;;;;5.00;5.00;;;;;22.39;48.88;99576.06;110322;1265;13171;-58
2022/09/17 10:55:04;;;;;;;;;2.00;2.00;;;;;22.39;48.85;99577.36;110431;1264;18129;-60
2022/09/17 10:57:31;;;;;;;;;2.00;2.00;;;;;22.39;48.73;99567.70;110356;1265;13457;-59
2022/09/17 10:59:59;;;;;;;;;4.33;2.00;;;;;22.43;48.77;99569.48;110380;1265;13107;-59
2022/09/17 11:02:26;;;;;;;;;3.00;3.00;;;;;22.45;48.99;99568.42;110428;1265;13278;-59
2022/09/17 11:04:53;;;;;;;;;3.00;3.00;;;;;22.49;49.09;99571.02;110475;1265;12995;-61
2022/09/17 11:07:21;;;;;;;;;2.00;2.00;;;;;22.48;49.27;99572.95;110374;1265;13001;-61
2022/09/17 11:09:48;;;;;;;;;3.67;3.67;;;;;22.49;49.33;99567.96;110330;1265;12850;-61
2022/09/17 11:12:15;;;;;;;;;2.33;2.33;;;;;22.53;49.51;99573.65;110394;1265;12883;-60
2022/09/17 11:14:42;;;;;;;;;2.00;2.00;;;;;22.60;49.54;99567.02;110279;1265;13384;-58
2022/09/17 11:17:09;;;;;;;;;6.00;6.00;;;;;22.61;49.52;99564.54;110249;1265;12432;-59
2022/09/17 11:19:37;;;;;;;;;7.00;5.00;;;;;22.48;49.30;99560.53;110392;1265;15084;-57
2022/09/17 11:22:04;;;;;;;;;5.00;5.00;;;;;22.34;49.24;99561.33;110470;1265;13226;-60